Weather at Svæveflyvecenter Arnborg

Public forecast

Using degrees Celsius for public forecast. Weather courtesy of forecast.io.

Closest aviation weather report (METAR) to Svæveflyvecenter Arnborg

Closest report is Billund Airport, 17.0 nm (31.4 km) SSE. Retrieved 2021/03/09 06:20 UTC (0 seconds ago):

EKBI 090620Z AUTO 10004KT 9999 NCD M04/M06 Q1019

Closest aviation forecast (TAF) to Svæveflyvecenter Arnborg

Closest forecast is Billund Airport, 17.0 nm (31.4 km) SSE. Retrieved 2021-03-09 00:32 UTC (6 hours ago):

TAF EKBI 082312Z 0900/0924 11005KT CAVOK